Time;durP1;ratioP1;P1;durP2;ratioP2;P2;SDS_P1;SDS_P2;PMS_P1;PMS_P2;Temp;Humidity;BMP_temperature;BMP_pressure;BME280_temperature;BME280_humidity;BME280_pressure;Samples;Min_cycle;Max_cycle;Signal;HPM_P1;HPM_P2
2022/09/16 00:02:02;;;;;;;7.80;6.10;;;14.20;81.60;;;;;;4949907;28;20039;-83
2022/09/16 00:04:29;;;;;;;8.38;6.15;;;14.20;81.60;;;;;;4934913;29;20034;-83
2022/09/16 00:06:55;;;;;;;8.18;5.95;;;14.20;81.50;;;;;;4951042;28;20058;-82
2022/09/16 00:09:21;;;;;;;7.32;5.30;;;14.20;81.60;;;;;;4930624;29;20047;-82
2022/09/16 00:11:47;;;;;;;8.27;5.82;;;14.20;81.60;;;;;;4950182;28;20070;-88
2022/09/16 00:14:13;;;;;;;10.50;6.30;;;14.20;81.70;;;;;;4950680;28;20038;-84
2022/09/16 00:16:39;;;;;;;7.95;5.90;;;14.10;81.60;;;;;;4950666;28;20035;-87
2022/09/16 00:19:04;;;;;;;6.78;5.30;;;14.20;81.70;;;;;;4951585;28;20036;-88
2022/09/16 00:21:31;;;;;;;7.00;5.85;;;14.20;82.20;;;;;;4947997;29;20032;-85
2022/09/16 00:23:57;;;;;;;8.07;6.13;;;14.10;81.60;;;;;;4951104;28;20035;-86
2022/09/16 00:26:24;;;;;;;6.93;5.82;;;14.10;81.60;;;;;;4951140;28;20560;-86
2022/09/16 00:28:50;;;;;;;8.07;5.82;;;14.10;81.60;;;;;;4952189;28;20054;-86
2022/09/16 00:31:17;;;;;;;9.35;6.07;;;14.10;81.70;;;;;;4950467;28;20047;-86
2022/09/16 00:33:43;;;;;;;6.85;5.22;;;14.10;81.70;;;;;;4953787;28;20502;-88
2022/09/16 00:36:15;;;;;;;6.97;4.72;;;14.10;81.70;;;;;;4949084;29;20086;-88
2022/09/16 00:38:42;;;;;;;7.95;5.53;;;14.10;81.70;;;;;;4952051;28;20098;-86
2022/09/16 00:41:13;;;;;;;8.85;5.45;;;14.00;81.70;;;;;;4954648;28;20498;-87
2022/09/16 00:44:09;;;;;;;8.02;5.90;;;14.10;81.70;;;;;;4951137;28;20117;-86
2022/09/16 00:46:40;;;;;;;7.13;5.40;;;14.00;81.80;;;;;;4888503;29;21611;-81
2022/09/16 00:49:16;;;;;;;6.63;5.32;;;14.00;81.80;;;;;;4889485;29;20450;-84
2022/09/16 00:51:46;;;;;;;6.53;5.47;;;14.00;81.90;;;;;;4890028;29;20037;-84
2022/09/16 00:54:14;;;;;;;9.32;5.65;;;14.00;82.00;;;;;;4890413;29;20531;-86
2022/09/16 00:56:44;;;;;;;6.85;5.35;;;14.00;82.10;;;;;;4889062;29;20040;-86
2022/09/16 00:59:16;;;;;;;6.53;5.13;;;14.00;82.10;;;;;;4889311;29;20078;-86
2022/09/16 01:01:43;;;;;;;8.27;5.75;;;14.00;82.30;;;;;;4892430;29;20051;-87
2022/09/16 01:04:18;;;;;;;8.38;5.85;;;13.90;82.30;;;;;;4889484;29;20068;-84
2022/09/16 01:06:45;;;;;;;7.00;5.25;;;14.00;82.30;;;;;;4888850;29;20045;-85
2022/09/16 01:09:11;;;;;;;6.22;5.60;;;14.00;82.30;;;;;;4890335;29;20033;-82
2022/09/16 01:11:37;;;;;;;8.85;5.60;;;14.00;82.30;;;;;;4877646;29;20034;-84
2022/09/16 01:17:11;;;;;;;6.70;5.75;;;14.00;82.30;;;;;;4889670;29;20130;-87
2022/09/16 01:19:49;;;;;;;5.72;5.13;;;13.90;82.20;;;;;;4888249;29;20071;-86
2022/09/16 01:22:26;;;;;;;8.15;5.95;;;13.90;82.10;;;;;;4890221;29;20936;-84
2022/09/16 01:25:11;;;;;;;7.10;5.88;;;13.90;82.20;;;;;;4949213;28;20039;-87
2022/09/16 01:27:51;;;;;;;7.60;5.87;;;13.90;82.20;;;;;;4928494;29;20545;-89
2022/09/16 01:30:58;;;;;;;8.25;6.03;;;13.90;82.10;;;;;;4949325;28;20035;-86
2022/09/16 01:33:45;;;;;;;7.47;5.53;;;13.90;82.20;;;;;;4874510;29;20040;-86
2022/09/16 01:36:14;;;;;;;8.55;6.13;;;13.90;82.00;;;;;;4890039;29;20040;-84
2022/09/16 01:38:47;;;;;;;7.57;6.13;;;13.90;82.00;;;;;;4890102;29;20123;-86
2022/09/16 01:41:53;;;;;;;9.57;6.38;;;13.90;82.00;;;;;;4890290;29;20442;-88
2022/09/16 01:44:45;;;;;;;8.45;6.35;;;13.80;82.10;;;;;;4890033;29;20104;-83
2022/09/16 01:47:29;;;;;;;8.50;5.78;;;13.80;82.30;;;;;;4891144;29;20112;-86
2022/09/16 01:50:10;;;;;;;6.50;5.57;;;13.80;82.30;;;;;;4890870;29;20036;-80
2022/09/16 01:52:56;;;;;;;9.85;6.15;;;13.80;82.40;;;;;;4889927;29;20120;-83
2022/09/16 01:55:31;;;;;;;9.85;7.03;;;13.80;82.40;;;;;;4889479;29;20052;-84
2022/09/16 01:58:10;;;;;;;7.43;6.15;;;13.80;82.40;;;;;;4889666;29;20575;-84
2022/09/16 02:00:39;;;;;;;9.20;6.60;;;13.70;82.50;;;;;;4888793;29;20037;-79
2022/09/16 02:03:12;;;;;;;8.40;6.55;;;13.70;82.50;;;;;;4889290;29;20043;-83
2022/09/16 02:05:52;;;;;;;9.70;7.28;;;13.80;82.60;;;;;;4888771;29;20044;-85
2022/09/16 02:08:40;;;;;;;9.90;6.65;;;13.80;82.50;;;;;;4941302;28;20126;-82
2022/09/16 02:11:09;;;;;;;9.55;6.88;;;13.80;82.40;;;;;;4949357;28;20064;-83
2022/09/16 02:13:41;;;;;;;8.15;6.82;;;13.80;82.30;;;;;;4947513;29;20042;-82
2022/09/16 02:16:17;;;;;;;9.00;6.55;;;13.80;82.30;;;;;;4947231;29;20090;-84
2022/09/16 02:18:50;;;;;;;8.70;6.53;;;13.70;82.40;;;;;;4948569;28;20064;-83
2022/09/16 02:21:19;;;;;;;9.20;6.68;;;13.70;82.30;;;;;;4948518;28;20438;-83
2022/09/16 02:23:55;;;;;;;8.07;6.45;;;13.70;82.30;;;;;;4947172;28;20414;-83
2022/09/16 02:26:25;;;;;;;7.38;6.68;;;13.70;82.30;;;;;;4946835;28;20035;-85
2022/09/16 02:28:53;;;;;;;9.00;6.70;;;13.70;82.30;;;;;;4949353;29;20027;-86
2022/09/16 02:31:25;;;;;;;9.88;7.15;;;13.70;82.40;;;;;;4947540;29;20032;-84
2022/09/16 02:33:57;;;;;;;9.68;6.88;;;13.70;82.50;;;;;;4958136;28;20032;-85
2022/09/16 02:36:25;;;;;;;10.63;7.00;;;13.70;82.50;;;;;;4947985;28;20414;-84
2022/09/16 02:39:15;;;;;;;8.80;7.25;;;13.70;82.40;;;;;;4948284;28;20078;-84
2022/09/16 02:41:42;;;;;;;8.15;6.53;;;13.70;82.50;;;;;;4948276;28;20134;-85
2022/09/16 02:44:09;;;;;;;8.18;6.80;;;13.70;82.50;;;;;;4928532;28;20399;-84
2022/09/16 02:47:02;;;;;;;9.80;7.25;;;13.70;82.60;;;;;;4941512;29;20621;-82
2022/09/16 02:49:54;;;;;;;9.20;7.05;;;13.70;82.70;;;;;;4947615;29;20418;-81
2022/09/16 02:52:42;;;;;;;8.82;7.05;;;13.70;82.80;;;;;;4947790;29;20094;-87
2022/09/16 02:55:20;;;;;;;8.05;6.82;;;13.70;82.70;;;;;;4957587;28;20055;-84
2022/09/16 02:57:47;;;;;;;9.25;6.95;;;13.70;82.90;;;;;;4948829;28;20182;-83
2022/09/16 03:00:13;;;;;;;8.07;7.13;;;13.70;82.90;;;;;;4947831;28;20066;-84
2022/09/16 03:02:40;;;;;;;10.38;7.28;;;13.70;82.90;;;;;;4946426;29;20506;-82
2022/09/16 03:05:08;;;;;;;10.13;7.35;;;13.70;83.00;;;;;;4947726;28;20023;-82
2022/09/16 03:07:35;;;;;;;7.78;6.60;;;13.70;83.10;;;;;;4947648;29;20035;-86
2022/09/16 03:10:02;;;;;;;8.00;6.70;;;13.70;83.10;;;;;;4961639;28;20181;-85
2022/09/16 03:12:48;;;;;;;9.05;6.97;;;13.80;83.30;;;;;;4946358;29;20035;-88
2022/09/16 03:15:20;;;;;;;9.93;7.03;;;13.70;83.30;;;;;;4947599;29;20035;-84
2022/09/16 03:18:07;;;;;;;7.20;6.45;;;13.70;83.20;;;;;;4947519;28;20134;-85
2022/09/16 03:20:59;;;;;;;8.75;6.88;;;13.70;83.30;;;;;;4947583;28;20039;-84
2022/09/16 03:24:01;;;;;;;9.98;6.93;;;13.80;83.30;;;;;;4943002;28;20031;-85
2022/09/16 03:26:40;;;;;;;6.95;6.25;;;13.80;83.30;;;;;;4949442;28;22064;-84
2022/09/16 03:29:20;;;;;;;7.63;6.75;;;13.80;83.20;;;;;;4947085;28;20031;-84
2022/09/16 03:31:52;;;;;;;8.93;6.53;;;13.80;83.30;;;;;;4947318;28;20111;-84
2022/09/16 03:34:44;;;;;;;11.25;6.43;;;13.80;83.40;;;;;;4945406;29;20035;-83
2022/09/16 03:37:14;;;;;;;7.80;6.00;;;13.80;83.30;;;;;;4943490;29;20035;-83
2022/09/16 03:39:40;;;;;;;7.70;6.63;;;13.90;83.30;;;;;;4949984;28;20039;-85
2022/09/16 03:42:10;;;;;;;7.80;6.60;;;13.80;83.20;;;;;;4951429;28;20039;-86
2022/09/16 03:44:39;;;;;;;8.68;7.10;;;13.80;83.40;;;;;;4949788;29;20043;-83
2022/09/16 03:47:08;;;;;;;8.70;7.18;;;13.80;83.40;;;;;;4947352;28;20043;-85
2022/09/16 03:49:35;;;;;;;9.05;7.22;;;13.90;83.40;;;;;;4950297;29;20027;-84
2022/09/16 03:52:01;;;;;;;8.60;6.90;;;13.90;83.30;;;;;;4950748;28;20044;-85
2022/09/16 03:54:27;;;;;;;8.95;6.93;;;13.90;83.30;;;;;;4949892;29;20739;-85
2022/09/16 03:56:53;;;;;;;8.38;6.18;;;13.90;83.30;;;;;;4952310;28;20037;-85
2022/09/16 03:59:19;;;;;;;7.32;6.30;;;13.90;83.30;;;;;;4949449;28;20138;-86
2022/09/16 04:01:45;;;;;;;7.28;5.60;;;13.90;83.80;;;;;;4950590;29;20058;-82
2022/09/16 04:04:11;;;;;;;8.23;6.70;;;14.00;83.60;;;;;;4948737;29;20048;-83
2022/09/16 04:06:37;;;;;;;7.65;6.63;;;14.00;83.40;;;;;;4947495;29;20043;-81
2022/09/16 04:09:05;;;;;;;8.70;6.93;;;14.00;83.40;;;;;;4948804;29;20036;-84
2022/09/16 04:11:32;;;;;;;9.73;7.45;;;14.00;83.30;;;;;;4949913;28;20037;-82
2022/09/16 04:13:58;;;;;;;11.35;6.93;;;14.00;83.20;;;;;;4929915;28;20118;-81
2022/09/16 04:16:24;;;;;;;11.07;7.40;;;14.00;83.20;;;;;;4949032;29;20064;-83
2022/09/16 04:18:50;;;;;;;8.57;6.97;;;14.10;83.40;;;;;;4950879;28;20533;-84
2022/09/16 04:21:16;;;;;;;9.65;6.88;;;14.00;83.30;;;;;;4950185;28;20050;-83
2022/09/16 04:23:42;;;;;;;8.32;7.00;;;14.10;83.40;;;;;;4948456;28;20103;-85
2022/09/16 04:26:10;;;;;;;8.27;6.38;;;14.00;83.20;;;;;;4948312;28;20058;-79
2022/09/16 04:28:37;;;;;;;9.07;6.20;;;14.00;83.40;;;;;;4949145;29;20035;-85
2022/09/16 04:31:04;;;;;;;11.30;7.15;;;14.00;83.20;;;;;;4945667;28;20492;-81
2022/09/16 04:33:32;;;;;;;9.73;7.18;;;14.10;83.40;;;;;;4947985;28;20038;-81
2022/09/16 04:36:13;;;;;;;7.93;6.82;;;14.10;83.40;;;;;;4948112;29;20046;-78
2022/09/16 04:38:46;;;;;;;12.13;7.88;;;14.10;83.40;;;;;;4960888;28;20070;-81
2022/09/16 04:41:23;;;;;;;12.00;7.30;;;14.10;83.30;;;;;;4948388;28;20036;-82
2022/09/16 04:43:51;;;;;;;11.50;7.10;;;14.10;83.20;;;;;;4948736;29;20514;-80
2022/09/16 04:46:18;;;;;;;9.57;7.07;;;14.10;83.20;;;;;;4949292;29;20733;-79
2022/09/16 04:48:50;;;;;;;10.52;7.20;;;14.10;83.20;;;;;;4949814;28;20117;-82
2022/09/16 04:51:18;;;;;;;8.52;6.90;;;14.20;83.20;;;;;;4951134;28;20829;-84
2022/09/16 04:53:45;;;;;;;12.23;7.85;;;14.10;83.30;;;;;;4951925;28;20035;-84
2022/09/16 04:56:14;;;;;;;9.40;7.45;;;14.10;83.40;;;;;;4942824;28;20051;-85
2022/09/16 04:58:44;;;;;;;8.95;7.53;;;14.10;83.50;;;;;;4933310;29;20042;-83
2022/09/16 05:01:13;;;;;;;9.43;7.10;;;14.20;83.50;;;;;;4946637;28;20123;-83
2022/09/16 05:03:44;;;;;;;9.65;7.07;;;14.10;83.40;;;;;;4947004;28;20041;-83
2022/09/16 05:06:13;;;;;;;9.02;7.18;;;14.10;83.50;;;;;;4946416;29;20426;-82
2022/09/16 05:08:39;;;;;;;10.95;7.40;;;14.20;83.50;;;;;;4947978;28;20418;-84
2022/09/16 05:11:17;;;;;;;8.25;7.15;;;14.20;83.60;;;;;;4947818;28;20633;-83
2022/09/16 05:13:43;;;;;;;9.90;7.43;;;14.20;83.50;;;;;;4948723;29;20056;-84
2022/09/16 05:16:14;;;;;;;9.35;7.28;;;14.20;83.50;;;;;;4945841;29;20039;-82
2022/09/16 05:18:42;;;;;;;8.68;7.22;;;14.20;83.50;;;;;;4930229;29;20035;-84
2022/09/16 05:21:10;;;;;;;10.48;6.95;;;14.20;83.40;;;;;;4945452;29;20565;-84
2022/09/16 05:23:37;;;;;;;9.32;7.53;;;14.20;83.50;;;;;;4949103;28;20277;-81
2022/09/16 05:26:05;;;;;;;10.25;7.20;;;14.20;83.60;;;;;;4949313;28;20550;-82
2022/09/16 05:28:32;;;;;;;8.02;6.82;;;14.20;83.70;;;;;;4949418;29;20384;-83
2022/09/16 05:31:12;;;;;;;8.02;7.10;;;14.20;83.60;;;;;;4948292;28;20545;-84
2022/09/16 05:33:40;;;;;;;8.70;7.22;;;14.20;83.60;;;;;;4949111;28;20130;-81
2022/09/16 05:36:08;;;;;;;8.82;7.50;;;14.20;83.70;;;;;;4944602;28;20032;-81
2022/09/16 05:38:34;;;;;;;11.32;6.63;;;14.20;83.60;;;;;;4948529;28;20489;-83
2022/09/16 05:41:01;;;;;;;8.60;6.88;;;14.20;83.40;;;;;;4947688;28;20027;-84
2022/09/16 05:43:27;;;;;;;8.48;6.93;;;14.20;83.50;;;;;;4950089;29;20431;-83
2022/09/16 05:45:54;;;;;;;12.13;8.40;;;14.20;83.70;;;;;;4948938;28;20035;-81
2022/09/16 05:48:21;;;;;;;10.90;7.88;;;14.30;83.60;;;;;;4947618;29;20474;-81
2022/09/16 05:50:55;;;;;;;9.55;6.50;;;14.30;83.60;;;;;;4948515;28;20050;-82
2022/09/16 05:53:22;;;;;;;9.25;6.80;;;14.30;83.50;;;;;;4947174;29;20043;-83
2022/09/16 05:56:09;;;;;;;12.90;7.18;;;14.20;83.60;;;;;;4949249;29;20051;-83
2022/09/16 05:58:36;;;;;;;9.38;6.70;;;14.30;83.80;;;;;;4949061;28;20082;-80
2022/09/16 06:01:14;;;;;;;7.30;6.45;;;14.30;83.70;;;;;;4916364;29;20537;-82
2022/09/16 06:03:42;;;;;;;9.82;7.05;;;14.30;83.80;;;;;;4948178;28;20089;-83
2022/09/16 06:06:18;;;;;;;8.80;7.07;;;14.30;83.70;;;;;;4948374;28;20429;-84
2022/09/16 06:08:44;;;;;;;9.30;7.35;;;14.40;83.80;;;;;;4947264;29;20043;-82
2022/09/16 06:11:11;;;;;;;9.25;7.13;;;14.30;83.70;;;;;;4945427;28;20058;-83
2022/09/16 06:13:38;;;;;;;10.75;7.07;;;14.40;83.80;;;;;;4944892;29;20035;-82
2022/09/16 06:16:06;;;;;;;8.88;7.32;;;14.40;83.80;;;;;;4948336;28;20550;-82
2022/09/16 06:18:32;;;;;;;10.38;7.25;;;14.40;83.90;;;;;;4929192;29;20071;-81
2022/09/16 06:21:06;;;;;;;10.10;7.57;;;14.40;84.50;;;;;;4945317;29;20039;-83
2022/09/16 06:23:33;;;;;;;8.60;7.53;;;14.40;84.00;;;;;;4948139;28;20035;-83
2022/09/16 06:26:21;;;;;;;10.18;8.00;;;14.40;83.90;;;;;;4915820;28;20035;-82
2022/09/16 06:28:49;;;;;;;8.80;6.70;;;14.40;83.80;;;;;;4958402;28;20050;-82
2022/09/16 06:31:24;;;;;;;8.45;6.18;;;14.50;83.60;;;;;;4947686;28;20122;-80
2022/09/16 06:33:50;;;;;;;7.53;6.65;;;14.50;83.50;;;;;;4948115;28;20492;-83
2022/09/16 06:36:21;;;;;;;8.43;6.57;;;14.50;83.90;;;;;;4947657;28;20039;-83
2022/09/16 06:38:48;;;;;;;8.05;6.88;;;14.50;83.70;;;;;;4948016;28;20038;-81
2022/09/16 06:41:16;;;;;;;8.52;6.85;;;14.60;84.00;;;;;;4946365;28;20038;-84
2022/09/16 06:43:43;;;;;;;8.35;6.65;;;14.50;83.70;;;;;;4948202;29;20028;-81
2022/09/16 06:46:12;;;;;;;9.38;6.90;;;14.60;83.50;;;;;;4944702;28;20035;-83
2022/09/16 06:48:40;;;;;;;10.93;6.82;;;14.60;83.60;;;;;;4948121;28;20066;-83
2022/09/16 06:51:11;;;;;;;8.43;6.50;;;14.60;83.30;;;;;;4946270;29;20081;-83
2022/09/16 06:53:37;;;;;;;7.75;6.22;;;14.70;83.70;;;;;;4946834;29;20104;-82
2022/09/16 06:56:06;;;;;;;9.50;6.85;;;14.70;83.20;;;;;;4945875;28;20438;-84
2022/09/16 06:58:34;;;;;;;8.98;6.35;;;14.70;83.50;;;;;;4942721;29;21387;-80
2022/09/16 07:01:17;;;;;;;8.70;6.68;;;14.70;83.30;;;;;;4946401;28;20528;-83
2022/09/16 07:03:45;;;;;;;8.90;6.80;;;14.70;83.60;;;;;;4928467;29;20039;-85
2022/09/16 07:06:13;;;;;;;9.60;6.55;;;14.80;83.70;;;;;;4946589;29;20540;-81
2022/09/16 07:08:40;;;;;;;7.32;6.38;;;14.80;83.60;;;;;;4946243;28;20039;-84
2022/09/16 07:11:11;;;;;;;7.22;6.50;;;14.80;83.00;;;;;;4941469;28;20511;-83
2022/09/16 07:13:37;;;;;;;7.55;6.80;;;14.90;83.20;;;;;;4930932;29;20043;-83
2022/09/16 07:16:06;;;;;;;7.65;6.55;;;14.90;83.30;;;;;;4948012;28;20047;-83
2022/09/16 07:18:33;;;;;;;7.18;6.30;;;14.90;83.00;;;;;;4946719;28;21846;-83
2022/09/16 07:21:02;;;;;;;9.18;7.13;;;14.90;82.90;;;;;;4946840;28;20149;-83
2022/09/16 07:23:33;;;;;;;8.90;7.28;;;14.90;82.90;;;;;;4925295;29;20031;-83
2022/09/16 07:26:02;;;;;;;9.77;7.18;;;15.00;83.20;;;;;;4946254;28;20031;-82
2022/09/16 07:28:28;;;;;;;8.80;6.70;;;15.00;83.30;;;;;;4943047;29;20035;-84
2022/09/16 07:30:54;;;;;;;8.52;7.07;;;15.00;83.30;;;;;;4947104;28;20039;-83
2022/09/16 07:33:20;;;;;;;9.93;7.38;;;15.10;83.50;;;;;;4946207;29;20038;-83
2022/09/16 07:35:46;;;;;;;11.88;8.10;;;15.10;83.70;;;;;;4946874;28;20059;-84
2022/09/16 07:38:12;;;;;;;9.63;7.53;;;15.20;83.70;;;;;;4947253;28;21402;-80
2022/09/16 07:40:39;;;;;;;12.93;7.28;;;15.20;83.60;;;;;;4947819;29;20054;-83
2022/09/16 07:43:05;;;;;;;10.25;7.82;;;15.20;83.60;;;;;;4946743;28;20039;-83
2022/09/16 07:45:31;;;;;;;9.15;7.50;;;15.30;83.70;;;;;;4947315;28;20039;-82
2022/09/16 07:47:57;;;;;;;9.98;7.13;;;15.30;83.60;;;;;;4947298;28;20059;-82
2022/09/16 07:50:23;;;;;;;9.57;7.20;;;15.30;83.60;;;;;;4946292;28;20035;-84
2022/09/16 07:52:54;;;;;;;9.18;7.07;;;15.40;83.60;;;;;;4945952;29;20120;-83
2022/09/16 07:55:20;;;;;;;8.57;7.50;;;15.40;83.80;;;;;;4945065;28;20064;-82
2022/09/16 07:57:46;;;;;;;10.70;8.20;;;15.40;83.50;;;;;;4929519;29;20105;-83
2022/09/16 08:00:12;;;;;;;9.20;7.40;;;15.40;83.40;;;;;;4945816;28;20125;-81
2022/09/16 08:02:38;;;;;;;10.32;7.80;;;15.40;83.40;;;;;;4947081;28;20032;-83
2022/09/16 08:05:04;;;;;;;9.45;7.32;;;15.50;83.50;;;;;;4928184;28;20038;-84
2022/09/16 08:07:30;;;;;;;9.63;7.75;;;15.50;83.30;;;;;;4947913;29;20075;-83
2022/09/16 08:09:56;;;;;;;9.48;7.80;;;15.50;83.40;;;;;;4946547;28;20094;-84
2022/09/16 08:12:22;;;;;;;9.88;7.82;;;15.50;83.40;;;;;;4944318;28;20037;-84
2022/09/16 08:15:14;;;;;;;9.50;8.02;;;15.60;83.40;;;;;;4946827;28;20046;-84
2022/09/16 08:17:40;;;;;;;9.48;8.05;;;15.60;83.20;;;;;;4946706;28;20502;-82
2022/09/16 08:20:06;;;;;;;9.27;7.07;;;15.60;83.20;;;;;;4946787;28;20031;-84
2022/09/16 08:22:33;;;;;;;9.80;7.30;;;15.70;83.20;;;;;;4947762;28;20039;-83
2022/09/16 08:24:59;;;;;;;8.38;7.40;;;15.70;83.00;;;;;;4933143;29;20449;-83
2022/09/16 08:27:25;;;;;;;9.48;7.10;;;15.70;83.00;;;;;;4949457;28;20046;-83
2022/09/16 08:29:51;;;;;;;8.43;6.97;;;15.80;83.00;;;;;;4949438;28;20039;-83
2022/09/16 08:32:17;;;;;;;8.68;7.18;;;15.80;82.80;;;;;;4949084;28;20530;-83
2022/09/16 08:34:43;;;;;;;9.77;6.82;;;15.80;82.60;;;;;;4949696;29;20046;-84
2022/09/16 08:37:09;;;;;;;8.73;6.30;;;15.90;82.70;;;;;;4951156;28;20039;-83
2022/09/16 08:39:35;;;;;;;8.70;6.20;;;15.90;82.70;;;;;;4951075;28;20062;-83
2022/09/16 08:42:26;;;;;;;7.60;6.35;;;15.90;82.70;;;;;;4949940;28;20039;-83
2022/09/16 08:45:21;;;;;;;7.97;6.65;;;15.90;82.70;;;;;;4950187;28;20920;-82
2022/09/16 08:47:54;;;;;;;7.10;6.00;;;16.00;82.70;;;;;;4949478;28;20491;-84
2022/09/16 08:50:31;;;;;;;9.18;6.25;;;16.00;82.50;;;;;;4950083;28;20036;-83
2022/09/16 08:53:00;;;;;;;8.57;6.22;;;16.00;82.60;;;;;;4949244;28;20429;-83
2022/09/16 08:55:34;;;;;;;8.52;6.03;;;16.00;82.40;;;;;;4945306;28;20059;-83
2022/09/16 08:58:06;;;;;;;8.52;5.82;;;16.10;82.40;;;;;;4949722;28;20055;-83
2022/09/16 09:00:33;;;;;;;6.53;5.10;;;16.10;82.30;;;;;;4950028;28;20036;-83
2022/09/16 09:03:07;;;;;;;8.02;5.80;;;16.10;82.00;;;;;;4948998;28;20545;-83
2022/09/16 09:05:51;;;;;;;6.88;5.95;;;16.20;82.40;;;;;;4962040;28;20035;-79
2022/09/16 09:08:23;;;;;;;6.68;5.50;;;16.20;82.40;;;;;;4949478;28;20046;-83
2022/09/16 09:10:56;;;;;;;6.65;5.40;;;16.20;82.20;;;;;;4948221;29;20587;-84
2022/09/16 09:13:43;;;;;;;7.03;5.90;;;16.20;82.10;;;;;;4948233;28;20038;-82
2022/09/16 09:16:44;;;;;;;6.57;5.38;;;16.30;82.20;;;;;;4949602;28;20058;-83
2022/09/16 09:19:13;;;;;;;6.20;4.93;;;16.30;82.00;;;;;;4908667;29;20075;-83
2022/09/16 09:22:13;;;;;;;6.43;5.82;;;16.30;81.70;;;;;;4893380;29;20040;-83
2022/09/16 09:25:16;;;;;;;6.38;5.45;;;16.30;82.00;;;;;;4837582;29;20061;-82
2022/09/16 09:28:04;;;;;;;6.22;5.22;;;16.30;81.80;;;;;;4837961;29;20038;-84
2022/09/16 09:30:34;;;;;;;5.93;5.30;;;16.30;81.90;;;;;;4837828;29;20038;-83
2022/09/16 09:33:49;;;;;;;6.20;5.60;;;16.40;81.70;;;;;;4852565;29;20136;-83
2022/09/16 09:36:24;;;;;;;6.35;5.40;;;16.40;81.80;;;;;;4844213;29;20191;-83
2022/09/16 09:39:11;;;;;;;5.70;4.97;;;16.40;81.80;;;;;;4842636;29;20042;-84
2022/09/16 09:41:49;;;;;;;6.00;5.40;;;16.40;81.60;;;;;;4842302;29;20038;-81
2022/09/16 09:44:44;;;;;;;5.35;4.70;;;16.40;81.60;;;;;;4842450;29;20046;-83
2022/09/16 09:47:34;;;;;;;7.07;5.00;;;16.40;81.70;;;;;;4838869;29;20136;-83
2022/09/16 09:50:30;;;;;;;5.28;4.78;;;16.40;81.70;;;;;;4827666;29;20466;-81
2022/09/16 09:53:09;;;;;;;7.27;5.80;;;16.40;81.80;;;;;;4842950;29;20037;-83
2022/09/16 09:55:36;;;;;;;7.00;5.88;;;16.50;82.00;;;;;;4842012;29;20552;-84
2022/09/16 09:58:27;;;;;;;6.65;5.50;;;16.50;81.70;;;;;;4812945;29;20042;-83
2022/09/16 10:00:56;;;;;;;7.03;6.05;;;16.50;82.10;;;;;;4865246;29;20139;-83
2022/09/16 10:03:23;;;;;;;6.57;5.72;;;16.50;81.80;;;;;;4917714;29;20188;-83
2022/09/16 10:05:49;;;;;;;6.85;6.15;;;16.50;81.90;;;;;;4916538;29;20039;-84
2022/09/16 10:08:40;;;;;;;8.15;6.22;;;16.60;81.90;;;;;;4916626;29;20031;-83
2022/09/16 10:11:19;;;;;;;7.00;6.10;;;16.60;82.00;;;;;;4943869;28;20051;-83
2022/09/16 10:13:51;;;;;;;7.78;6.57;;;16.60;81.90;;;;;;4947219;29;20039;-81
2022/09/16 10:16:19;;;;;;;7.43;6.57;;;16.60;81.70;;;;;;4947086;28;20422;-83
2022/09/16 10:18:57;;;;;;;8.23;6.18;;;16.60;81.70;;;;;;4944742;28;20081;-83
2022/09/16 10:21:24;;;;;;;7.05;6.22;;;16.70;81.90;;;;;;4948452;28;20031;-84
2022/09/16 10:23:56;;;;;;;7.18;6.05;;;16.70;81.60;;;;;;4945087;28;20094;-84
2022/09/16 10:26:24;;;;;;;6.97;6.22;;;16.70;82.00;;;;;;4948348;28;20051;-82
2022/09/16 10:28:54;;;;;;;7.65;6.18;;;16.70;81.60;;;;;;4947572;29;20031;-84
2022/09/16 10:31:22;;;;;;;7.85;5.88;;;16.70;81.60;;;;;;4949783;28;20392;-90
2022/09/16 10:33:48;;;;;;;6.13;5.53;;;16.70;81.70;;;;;;4965610;28;20035;-91
2022/09/16 10:36:20;;;;;;;6.00;5.40;;;16.80;81.70;;;;;;4918047;29;20036;-90
2022/09/16 10:38:54;;;;;;;5.70;5.05;;;16.70;81.70;;;;;;4936829;29;20091;-91
2022/09/16 10:41:39;;;;;;;7.60;5.40;;;16.80;81.50;;;;;;4948398;28;20042;-92
2022/09/16 10:44:31;;;;;;;6.30;5.07;;;16.80;81.60;;;;;;4922676;28;20043;-90
2022/09/16 10:47:05;;;;;;;6.03;5.43;;;16.80;81.60;;;;;;4925294;29;20039;-92
2022/09/16 10:49:53;;;;;;;5.28;4.78;;;16.80;81.50;;;;;;4923276;29;20071;-92
2022/09/16 10:52:23;;;;;;;7.05;5.05;;;16.80;81.50;;;;;;4925043;29;20091;-95
2022/09/16 10:54:49;;;;;;;6.93;5.03;;;16.80;81.40;;;;;;4918128;29;20110;-80
2022/09/16 10:57:28;;;;;;;5.93;4.85;;;16.80;81.40;;;;;;4946463;28;20045;-82
2022/09/16 11:00:11;;;;;;;5.88;4.82;;;16.90;81.50;;;;;;4925138;28;20045;-83
2022/09/16 11:02:54;;;;;;;5.10;4.60;;;16.90;81.40;;;;;;4947044;28;20423;-83
2022/09/16 11:05:26;;;;;;;4.97;4.50;;;16.90;81.20;;;;;;4948366;28;20051;-82
2022/09/16 11:08:10;;;;;;;5.07;4.30;;;16.90;81.90;;;;;;4945780;29;20043;-81
2022/09/16 11:10:48;;;;;;;5.10;4.60;;;16.90;81.20;;;;;;4947573;29;20638;-83
2022/09/16 11:13:23;;;;;;;4.70;4.30;;;16.90;81.30;;;;;;4946267;28;20733;-82
2022/09/16 11:16:18;;;;;;;4.35;3.95;;;16.90;81.20;;;;;;4950748;28;20046;-83
2022/09/16 11:19:05;;;;;;;4.72;4.32;;;16.90;81.10;;;;;;4950675;28;20051;-81
2022/09/16 11:21:55;;;;;;;5.72;4.05;;;16.90;81.20;;;;;;4951123;28;20027;-84
2022/09/16 11:25:00;;;;;;;5.80;4.38;;;16.90;81.30;;;;;;4951878;28;20046;-84
2022/09/16 11:27:35;;;;;;;4.35;3.75;;;16.90;81.20;;;;;;4950460;28;20507;-83
2022/09/16 11:30:23;;;;;;;5.15;4.45;;;17.00;81.10;;;;;;4952599;28;20630;-84
2022/09/16 11:32:54;;;;;;;5.00;4.07;;;17.00;81.30;;;;;;4951592;28;20443;-83
2022/09/16 11:35:41;;;;;;;4.85;4.38;;;17.00;81.20;;;;;;4952445;28;20036;-84
2022/09/16 11:38:16;;;;;;;6.40;4.63;;;17.00;81.20;;;;;;4948967;28;20044;-82
2022/09/16 11:41:02;;;;;;;7.00;4.38;;;17.00;81.10;;;;;;4934642;29;20491;-87
2022/09/16 11:43:47;;;;;;;6.72;4.50;;;17.00;81.00;;;;;;4954926;28;20074;-90
2022/09/16 11:46:51;;;;;;;5.30;4.18;;;17.00;80.90;;;;;;4951138;28;20115;-88
2022/09/16 11:49:37;;;;;;;4.53;4.13;;;17.00;81.10;;;;;;4893969;29;20049;-89
2022/09/16 11:52:34;;;;;;;8.40;4.50;;;17.00;80.90;;;;;;4891719;29;20096;-90
2022/09/16 11:55:21;;;;;;;4.15;3.75;;;17.00;81.00;;;;;;4814784;29;20107;-87
2022/09/16 11:58:00;;;;;;;4.60;3.97;;;17.00;80.90;;;;;;4816027;29;20110;-86
2022/09/16 12:00:27;;;;;;;4.57;4.15;;;17.00;81.10;;;;;;4819697;29;20082;-90
2022/09/16 12:03:17;;;;;;;4.75;3.90;;;17.00;80.90;;;;;;4818345;29;20598;-84
2022/09/16 12:06:03;;;;;;;4.25;3.85;;;17.00;81.00;;;;;;4819047;29;20118;-88
2022/09/16 12:08:33;;;;;;;5.43;3.95;;;17.10;81.10;;;;;;4823407;29;20054;-84
2022/09/16 12:11:01;;;;;;;5.22;3.90;;;17.00;80.90;;;;;;4819336;29;20058;-85
2022/09/16 12:14:04;;;;;;;4.05;3.65;;;17.00;80.80;;;;;;4819904;29;20050;-86
2022/09/16 12:16:49;;;;;;;4.90;3.85;;;17.00;81.00;;;;;;4755022;30;20044;-89
2022/09/16 12:19:24;;;;;;;3.87;3.57;;;17.00;81.00;;;;;;4756333;30;20143;-85
2022/09/16 12:21:55;;;;;;;;;;;17.00;81.00;;;;;;4759561;30;20051;-88
2022/09/16 12:24:36;;;;;;;5.00;3.97;;;17.00;80.80;;;;;;4759413;30;19922;-86
2022/09/16 12:27:11;;;;;;;6.03;3.72;;;17.10;80.80;;;;;;4790186;29;20518;-88
2022/09/16 12:29:59;;;;;;;4.22;3.80;;;17.10;80.80;;;;;;4790508;29;20546;-87
2022/09/16 12:32:30;;;;;;;4.70;3.85;;;17.10;80.70;;;;;;4841648;29;20173;-88
2022/09/16 12:35:03;;;;;;;4.32;3.65;;;17.10;80.80;;;;;;4872491;29;20653;-88
2022/09/16 12:37:38;;;;;;;5.18;3.55;;;17.10;80.90;;;;;;4869225;29;20591;-86
2022/09/16 12:40:13;;;;;;;4.22;3.80;;;17.10;80.80;;;;;;4857522;29;20627;-91
2022/09/16 12:42:51;;;;;;;;;;;17.10;80.90;;;;;;4864041;29;20040;-88
2022/09/16 12:45:59;;;;;;;4.25;3.47;;;17.10;80.90;;;;;;4875584;29;19930;-82
2022/09/16 12:48:49;;;;;;;4.10;3.70;;;17.10;80.90;;;;;;4841553;29;20136;-88
2022/09/16 12:52:06;;;;;;;4.05;3.58;;;17.10;80.80;;;;;;4884769;29;20184;-89
2022/09/16 12:54:56;;;;;;;5.07;4.05;;;17.10;80.80;;;;;;4910811;29;20454;-89
2022/09/16 12:57:56;;;;;;;4.20;3.80;;;17.10;80.80;;;;;;4951056;28;20118;-88
2022/09/16 13:01:00;;;;;;;4.38;3.90;;;17.10;80.80;;;;;;4950133;29;20039;-86
2022/09/16 13:03:30;;;;;;;4.18;3.70;;;17.10;80.80;;;;;;4874062;29;20620;-87
2022/09/16 13:06:04;;;;;;;4.28;3.95;;;17.10;80.80;;;;;;4867808;29;20104;-84
2022/09/16 13:08:32;;;;;;;3.88;3.55;;;17.10;80.70;;;;;;4883737;29;20077;-90
2022/09/16 13:11:00;;;;;;;4.25;3.65;;;17.10;80.80;;;;;;4874464;29;20064;-78
2022/09/16 13:13:41;;;;;;;4.18;3.78;;;17.10;80.80;;;;;;4871787;29;20120;-77
2022/09/16 13:16:08;;;;;;;4.82;4.03;;;17.10;80.80;;;;;;4870815;29;20045;-77
2022/09/16 13:18:45;;;;;;;4.00;3.58;;;17.10;80.80;;;;;;4871592;29;20079;-77
2022/09/16 13:21:27;;;;;;;4.95;3.80;;;17.10;80.80;;;;;;4870753;29;20045;-79
2022/09/16 13:24:04;;;;;;;5.72;3.67;;;17.10;80.80;;;;;;4870962;29;20037;-76
2022/09/16 13:26:44;;;;;;;5.30;4.00;;;17.20;80.90;;;;;;4854939;29;20045;-78